createdAt,value
2022-08-25T00:00:34.786Z,51.08
2022-08-25T00:03:39.450Z,51.11
2022-08-25T00:06:45.406Z,51.40
2022-08-25T00:09:48.174Z,51.33
2022-08-25T00:12:56.916Z,51.88
2022-08-25T00:15:59.446Z,51.99
2022-08-25T00:19:10.218Z,51.78
2022-08-25T00:22:12.409Z,52.11
2022-08-25T00:25:16.205Z,52.29
2022-08-25T00:28:22.174Z,52.70
2022-08-25T00:31:38.678Z,52.66
2022-08-25T00:34:42.493Z,52.82
2022-08-25T00:37:45.906Z,52.81
2022-08-25T00:41:06.731Z,53.13
2022-08-25T00:44:40.476Z,53.62
2022-08-25T00:47:56.648Z,53.58
2022-08-25T00:51:03.876Z,53.83
2022-08-25T00:54:07.534Z,54.13
2022-08-25T00:57:13.340Z,54.00
2022-08-25T01:00:24.387Z,53.92
2022-08-25T01:03:41.166Z,53.67
2022-08-25T01:06:45.709Z,53.79
2022-08-25T01:09:54.315Z,53.71
2022-08-25T01:13:00.201Z,53.55
2022-08-25T01:16:02.671Z,53.65
2022-08-25T01:19:05.888Z,53.48
2022-08-25T01:22:12.310Z,53.46
2022-08-25T01:25:33.052Z,53.39
2022-08-25T01:28:35.834Z,53.86
2022-08-25T01:31:38.641Z,53.51
2022-08-25T01:34:44.863Z,53.88
2022-08-25T01:37:49.389Z,54.14
2022-08-25T01:40:55.382Z,53.89
2022-08-25T01:43:57.559Z,54.06
2022-08-25T01:47:07.094Z,53.34
2022-08-25T01:50:16.195Z,53.97
2022-08-25T01:53:23.241Z,54.29
2022-08-25T01:56:30.061Z,54.46
2022-08-25T01:59:38.602Z,54.51
2022-08-25T02:02:52.280Z,54.37
2022-08-25T02:05:58.016Z,54.57
2022-08-25T02:09:02.610Z,54.71
2022-08-25T02:12:04.785Z,54.81
2022-08-25T02:15:07.995Z,55.20
2022-08-25T02:18:10.480Z,55.19
2022-08-25T02:21:12.340Z,55.16
2022-08-25T02:24:15.883Z,55.19
2022-08-25T02:27:17.732Z,55.09
2022-08-25T02:30:20.088Z,55.23
2022-08-25T02:33:24.204Z,55.35
2022-08-25T02:36:26.560Z,55.61
2022-08-25T02:39:32.937Z,55.87
2022-08-25T02:42:34.899Z,55.93
2022-08-25T02:45:39.274Z,55.97
2022-08-25T02:48:41.695Z,56.13
2022-08-25T02:51:43.515Z,56.43
2022-08-25T02:54:46.667Z,57.05
2022-08-25T02:57:48.440Z,57.29
2022-08-25T03:00:50.207Z,57.45
2022-08-25T03:03:52.713Z,57.57
2022-08-25T03:06:54.541Z,57.87
2022-08-25T03:09:57.792Z,58.07
2022-08-25T03:12:59.794Z,58.19
2022-08-25T03:16:02.905Z,58.08
2022-08-25T03:19:05.620Z,57.86
2022-08-25T03:22:07.557Z,58.01
2022-08-25T03:25:29.589Z,58.08
2022-08-25T03:28:35.466Z,58.35
2022-08-25T03:31:37.676Z,58.49
2022-08-25T03:34:39.727Z,58.94
2022-08-25T03:37:41.839Z,59.24
2022-08-25T03:40:44.964Z,59.25
2022-08-25T03:43:48.243Z,59.43
2022-08-25T03:46:51.672Z,59.69
2022-08-25T03:50:02.620Z,59.89
2022-08-25T03:53:04.718Z,60.07
2022-08-25T03:56:07.796Z,60.21
2022-08-25T03:59:10.088Z,60.38
2022-08-25T04:02:11.757Z,60.51
2022-08-25T04:05:13.621Z,60.76
2022-08-25T04:08:19.209Z,60.73
2022-08-25T04:11:23.524Z,60.94
2022-08-25T04:14:25.123Z,61.21
2022-08-25T04:17:26.776Z,61.26
2022-08-25T04:20:28.433Z,61.44
2022-08-25T04:23:30.044Z,62.05
2022-08-25T04:26:34.332Z,61.79
2022-08-25T04:29:36.111Z,61.81
2022-08-25T04:32:38.460Z,61.48
2022-08-25T04:35:41.790Z,61.34
2022-08-25T04:38:44.136Z,61.47
2022-08-25T04:41:47.478Z,61.61
2022-08-25T04:44:50.245Z,61.65
2022-08-25T04:47:55.018Z,61.85
2022-08-25T04:50:57.158Z,62.36
2022-08-25T04:53:59.245Z,62.74
2022-08-25T04:57:02.442Z,63.41
2022-08-25T05:00:05.823Z,63.45
2022-08-25T05:03:08.932Z,63.23
2022-08-25T05:06:15.366Z,64.00
2022-08-25T05:09:19.836Z,63.72
2022-08-25T05:12:24.900Z,63.73
2022-08-25T05:15:45.664Z,64.01
2022-08-25T05:18:49.178Z,63.94
2022-08-25T05:21:51.726Z,64.80
2022-08-25T05:24:56.728Z,64.84
2022-08-25T05:28:00.165Z,64.63
2022-08-25T05:31:03.119Z,64.55
2022-08-25T05:34:06.387Z,64.75
2022-08-25T05:37:12.083Z,64.95
2022-08-25T05:40:18.657Z,64.93
2022-08-25T05:43:21.822Z,65.36
2022-08-25T05:46:24.413Z,65.39
2022-08-25T05:49:26.289Z,65.77
2022-08-25T05:52:28.792Z,65.47
2022-08-25T05:55:30.508Z,65.17
2022-08-25T05:58:33.718Z,65.34
2022-08-25T06:01:56.533Z,65.57
2022-08-25T06:05:04.769Z,65.92
2022-08-25T06:08:06.695Z,65.93
2022-08-25T06:11:08.451Z,65.58
2022-08-25T06:14:11.972Z,65.79
2022-08-25T06:17:13.632Z,65.96
2022-08-25T06:20:16.398Z,65.95
2022-08-25T06:23:20.803Z,65.79
2022-08-25T06:26:22.822Z,65.86
2022-08-25T06:29:26.326Z,65.75
2022-08-25T06:32:30.425Z,65.85
2022-08-25T06:35:32.058Z,65.61
2022-08-25T06:38:36.600Z,65.61
2022-08-25T06:41:38.918Z,65.57
2022-08-25T06:44:42.309Z,65.51
2022-08-25T06:47:45.685Z,65.44
2022-08-25T06:50:47.539Z,65.60
2022-08-25T06:53:49.438Z,65.64
2022-08-25T06:56:51.646Z,65.63
2022-08-25T06:59:54.682Z,65.29
2022-08-25T07:02:57.235Z,65.38
2022-08-25T07:05:58.900Z,65.32
2022-08-25T07:09:00.493Z,65.77
2022-08-25T07:12:04.714Z,65.33
2022-08-25T07:15:19.770Z,65.47
2022-08-25T07:18:23.577Z,65.69
2022-08-25T07:21:28.895Z,65.84
2022-08-25T07:24:34.463Z,65.98
2022-08-25T07:27:36.187Z,65.69
2022-08-25T07:30:39.314Z,65.97
2022-08-25T07:34:01.621Z,66.07
2022-08-25T07:37:06.304Z,65.94
2022-08-25T07:40:09.570Z,66.24
2022-08-25T07:43:12.042Z,66.03
2022-08-25T07:46:15.237Z,66.05
2022-08-25T07:49:17.124Z,65.63
2022-08-25T07:52:19.482Z,65.94
2022-08-25T07:55:21.452Z,66.14
2022-08-25T07:58:23.119Z,66.14
2022-08-25T08:01:26.333Z,66.07
2022-08-25T08:04:28.071Z,66.10
2022-08-25T08:07:41.896Z,66.23
2022-08-25T08:11:04.334Z,65.68
2022-08-25T08:14:07.783Z,66.15
2022-08-25T08:17:13.992Z,65.99
2022-08-25T08:20:16.379Z,65.10
2022-08-25T08:23:27.791Z,65.53
2022-08-25T08:26:55.495Z,65.81
2022-08-25T08:29:52.480Z,65.51
2022-08-25T08:33:11.960Z,65.34
2022-08-25T08:36:14.377Z,64.79
2022-08-25T08:39:16.876Z,65.17
2022-08-25T08:42:23.153Z,64.58
2022-08-25T08:45:28.616Z,64.37
2022-08-25T08:48:44.756Z,63.75
2022-08-25T08:51:53.454Z,64.09
2022-08-25T08:55:00.450Z,64.05
2022-08-25T08:58:06.475Z,63.51
2022-08-25T09:01:10.251Z,63.82
2022-08-25T09:04:16.504Z,63.13
2022-08-25T09:07:24.716Z,63.33
2022-08-25T09:10:28.748Z,63.64
2022-08-25T09:13:39.782Z,62.38
2022-08-25T09:16:56.133Z,61.67
2022-08-25T09:20:18.790Z,60.92
2022-08-25T09:23:29.159Z,60.78
2022-08-25T09:26:36.499Z,60.94
2022-08-25T09:29:45.859Z,60.02
2022-08-25T09:32:52.573Z,59.88
2022-08-25T09:35:57.353Z,59.94
2022-08-25T09:38:59.994Z,59.60
2022-08-25T09:42:02.152Z,59.29
2022-08-25T09:45:04.936Z,59.38
2022-08-25T09:48:20.824Z,59.36
2022-08-25T09:51:26.721Z,59.61
2022-08-25T09:54:43.996Z,59.09
2022-08-25T09:57:47.318Z,59.78
2022-08-25T10:01:01.665Z,59.23
2022-08-25T10:04:04.559Z,58.39
2022-08-25T10:07:19.340Z,57.86
2022-08-25T10:10:24.995Z,57.79
2022-08-25T10:13:33.884Z,57.67
2022-08-25T10:16:36.299Z,57.39
2022-08-25T10:19:38.961Z,57.16
2022-08-25T10:22:42.870Z,56.83
2022-08-25T10:25:58.994Z,56.84
2022-08-25T10:29:17.811Z,56.21
2022-08-25T10:32:26.350Z,56.38
2022-08-25T10:35:31.542Z,56.30
2022-08-25T10:38:38.495Z,56.48
2022-08-25T10:41:46.584Z,56.44
2022-08-25T10:45:16.632Z,56.10
2022-08-25T10:48:43.271Z,55.31
2022-08-25T10:51:51.076Z,55.14
2022-08-25T10:54:57.837Z,55.33
2022-08-25T10:58:03.793Z,54.54
2022-08-25T11:01:12.340Z,54.71
2022-08-25T11:04:15.722Z,55.47
2022-08-25T11:07:20.847Z,54.78
2022-08-25T11:10:26.191Z,55.27
2022-08-25T11:13:31.837Z,55.93
2022-08-25T11:16:37.385Z,56.50
2022-08-25T11:19:40.913Z,55.67
2022-08-25T11:22:45.442Z,54.75
2022-08-25T11:25:51.902Z,54.59
2022-08-25T11:28:57.697Z,54.27
2022-08-25T11:32:01.215Z,53.00
2022-08-25T11:35:07.632Z,52.55
2022-08-25T11:38:21.072Z,52.46
2022-08-25T11:41:27.234Z,51.83
2022-08-25T11:44:53.785Z,51.95
2022-08-25T11:48:04.581Z,51.58
2022-08-25T11:51:09.769Z,51.78
2022-08-25T11:54:17.491Z,51.47
2022-08-25T11:57:25.020Z,50.97
2022-08-25T12:00:36.994Z,49.97
2022-08-25T12:03:51.878Z,49.64
2022-08-25T12:07:13.768Z,49.26
2022-08-25T12:10:18.658Z,48.37
2022-08-25T12:13:39.360Z,48.37
2022-08-25T12:16:43.652Z,47.30
2022-08-25T12:19:50.652Z,48.27
2022-08-25T12:22:56.231Z,48.42
2022-08-25T12:25:58.864Z,47.81
2022-08-25T12:29:08.244Z,48.35
2022-08-25T12:32:25.741Z,48.59
2022-08-25T12:35:31.250Z,47.84
2022-08-25T12:38:35.008Z,48.48
2022-08-25T12:41:51.883Z,48.52
2022-08-25T12:45:09.061Z,48.40
2022-08-25T12:48:31.725Z,48.61
2022-08-25T12:51:48.457Z,48.01
2022-08-25T12:54:53.827Z,47.75
2022-08-25T12:57:58.939Z,47.42
2022-08-25T13:01:17.372Z,48.53
2022-08-25T13:04:56.924Z,48.86
2022-08-25T13:08:16.088Z,48.43
2022-08-25T13:11:20.297Z,47.88
2022-08-25T13:14:26.928Z,47.75
2022-08-25T13:17:30.441Z,48.30
2022-08-25T13:20:35.901Z,48.67
2022-08-25T13:23:41.048Z,48.75
2022-08-25T13:26:48.451Z,48.40
2022-08-25T13:29:52.226Z,48.43
2022-08-25T13:32:54.867Z,48.16
2022-08-25T13:36:16.918Z,47.35
2022-08-25T13:39:45.272Z,46.36
2022-08-25T13:42:50.896Z,46.57
2022-08-25T13:45:56.848Z,47.25
2022-08-25T13:49:03.350Z,47.14
2022-08-25T13:52:05.800Z,46.81
2022-08-25T13:55:09.512Z,47.07
2022-08-25T13:58:14.384Z,46.55
2022-08-25T14:01:22.627Z,47.27
2022-08-25T14:04:51.712Z,47.85
2022-08-25T14:08:03.858Z,48.17
2022-08-25T14:11:27.936Z,48.37
2022-08-25T14:14:31.237Z,48.37
2022-08-25T14:17:39.080Z,48.13
2022-08-25T14:20:44.719Z,47.09
2022-08-25T14:23:46.326Z,46.73
2022-08-25T14:26:54.316Z,46.47
2022-08-25T14:29:56.469Z,46.34
2022-08-25T14:32:58.724Z,45.86
2022-08-25T14:36:02.680Z,45.77
2022-08-25T14:39:08.924Z,45.17
2022-08-25T14:42:12.477Z,45.45
2022-08-25T14:45:14.506Z,45.71
2022-08-25T14:48:20.621Z,45.57
2022-08-25T14:51:23.724Z,45.43
2022-08-25T14:54:27.544Z,44.97
2022-08-25T14:57:30.635Z,45.03
2022-08-25T15:00:32.373Z,45.63
2022-08-25T15:03:36.288Z,45.21
2022-08-25T15:06:39.074Z,45.30
2022-08-25T15:09:40.578Z,45.12
2022-08-25T15:12:47.863Z,44.94
2022-08-25T15:15:52.293Z,45.25
2022-08-25T15:18:54.886Z,45.76
2022-08-25T15:21:58.143Z,46.31
2022-08-25T15:25:01.825Z,46.45
2022-08-25T15:28:10.174Z,46.57
2022-08-25T15:31:14.937Z,47.06
2022-08-25T15:34:16.744Z,47.16
2022-08-25T15:37:24.669Z,47.55
2022-08-25T15:40:26.738Z,47.64
2022-08-25T15:43:29.864Z,47.70
2022-08-25T15:46:33.065Z,47.69
2022-08-25T15:49:38.102Z,47.87
2022-08-25T15:52:47.538Z,48.01
2022-08-25T15:55:50.184Z,47.73
2022-08-25T15:58:57.323Z,48.16
2022-08-25T16:01:59.401Z,48.86
2022-08-25T16:05:01.531Z,49.00
2022-08-25T16:08:04.083Z,49.16
2022-08-25T16:11:06.496Z,49.60
2022-08-25T16:14:12.659Z,49.21
2022-08-25T16:17:16.038Z,48.57
2022-08-25T16:20:19.615Z,48.40
2022-08-25T16:23:24.395Z,48.66
2022-08-25T16:26:26.786Z,48.71
2022-08-25T16:29:35.950Z,48.60
2022-08-25T16:32:37.960Z,48.37
2022-08-25T16:35:40.675Z,49.01
2022-08-25T16:38:43.443Z,49.00
2022-08-25T16:41:52.105Z,49.34
2022-08-25T16:44:55.111Z,49.26
2022-08-25T16:47:56.793Z,49.79
2022-08-25T16:50:58.534Z,49.32
2022-08-25T16:54:22.231Z,49.07
2022-08-25T16:57:24.339Z,49.21
2022-08-25T17:00:30.221Z,49.28
2022-08-25T17:03:34.249Z,49.26
2022-08-25T17:06:37.446Z,48.96
2022-08-25T17:09:39.932Z,49.42
2022-08-25T17:12:41.921Z,49.10
2022-08-25T17:15:47.165Z,49.16
2022-08-25T17:18:48.905Z,49.26
2022-08-25T17:21:50.907Z,49.25
2022-08-25T17:24:59.123Z,49.45
2022-08-25T17:28:05.590Z,49.63
2022-08-25T17:31:09.582Z,49.85
2022-08-25T17:34:13.048Z,50.25
2022-08-25T17:37:18.115Z,50.21
2022-08-25T17:40:21.841Z,50.36
2022-08-25T17:43:27.521Z,50.26
2022-08-25T17:46:33.760Z,50.55
2022-08-25T17:49:35.817Z,51.00
2022-08-25T17:52:37.592Z,50.94
2022-08-25T17:55:42.269Z,51.29
2022-08-25T17:58:45.367Z,51.54
2022-08-25T18:01:50.136Z,51.71
2022-08-25T18:04:57.520Z,52.01
2022-08-25T18:08:00.642Z,52.40
2022-08-25T18:11:05.932Z,53.12
2022-08-25T18:14:11.480Z,52.99
2022-08-25T18:17:14.573Z,53.01
2022-08-25T18:20:23.712Z,53.54
2022-08-25T18:23:25.340Z,53.79
2022-08-25T18:26:27.365Z,53.66
2022-08-25T18:29:29.190Z,53.68
2022-08-25T18:32:32.116Z,53.86
2022-08-25T18:35:34.759Z,53.85
2022-08-25T18:38:57.894Z,54.15
2022-08-25T18:42:01.240Z,54.23
2022-08-25T18:45:06.198Z,54.15
2022-08-25T18:48:09.597Z,54.42
2022-08-25T18:51:12.118Z,54.38
2022-08-25T18:54:23.224Z,54.41
2022-08-25T18:57:25.399Z,54.53
2022-08-25T19:00:28.328Z,54.86
2022-08-25T19:03:31.232Z,54.81
2022-08-25T19:06:37.487Z,54.75
2022-08-25T19:09:39.635Z,54.89
2022-08-25T19:12:41.380Z,55.47
2022-08-25T19:15:44.370Z,55.52
2022-08-25T19:18:52.243Z,55.77
2022-08-25T19:21:54.033Z,55.84
2022-08-25T19:24:55.784Z,55.77
2022-08-25T19:28:04.310Z,56.11
2022-08-25T19:31:08.292Z,56.49
2022-08-25T19:34:14.841Z,56.33
2022-08-25T19:37:17.928Z,56.83
2022-08-25T19:40:20.530Z,56.87
2022-08-25T19:43:26.751Z,57.13
2022-08-25T19:46:32.507Z,57.21
2022-08-25T19:49:36.992Z,57.01
2022-08-25T19:52:40.114Z,57.03
2022-08-25T19:55:44.164Z,57.07
2022-08-25T19:58:46.212Z,57.58
2022-08-25T20:01:50.260Z,57.32
2022-08-25T20:04:55.135Z,57.76
2022-08-25T20:07:57.644Z,57.79
2022-08-25T20:10:59.927Z,58.02
2022-08-25T20:14:03.905Z,57.72
2022-08-25T20:17:14.628Z,57.95
2022-08-25T20:20:32.455Z,57.86
2022-08-25T20:23:55.129Z,57.71
2022-08-25T20:26:56.934Z,58.04
2022-08-25T20:29:58.522Z,58.30
2022-08-25T20:33:00.560Z,57.99
2022-08-25T20:36:06.861Z,58.12
2022-08-25T20:39:08.919Z,58.43
2022-08-25T20:42:11.664Z,58.54
2022-08-25T20:45:14.080Z,58.60
2022-08-25T20:48:15.642Z,58.62
2022-08-25T20:51:21.215Z,58.65
2022-08-25T20:54:26.300Z,58.63
2022-08-25T20:57:28.712Z,58.72
2022-08-25T21:00:30.271Z,59.16
2022-08-25T21:03:31.829Z,59.43
2022-08-25T21:06:36.311Z,59.62
2022-08-25T21:09:40.244Z,59.19
2022-08-25T21:12:42.849Z,59.64
2022-08-25T21:15:48.604Z,59.99
2022-08-25T21:18:50.317Z,59.96
2022-08-25T21:21:53.833Z,59.80
2022-08-25T21:24:58.146Z,59.99
2022-08-25T21:28:00.172Z,60.19
2022-08-25T21:31:06.533Z,60.49
2022-08-25T21:34:10.693Z,60.37
2022-08-25T21:37:14.711Z,60.67
2022-08-25T21:40:16.666Z,60.71
2022-08-25T21:43:21.983Z,60.89
2022-08-25T21:46:26.288Z,60.95
2022-08-25T21:49:28.900Z,60.95
2022-08-25T21:52:41.200Z,61.43
2022-08-25T21:55:44.594Z,61.54
2022-08-25T21:58:49.079Z,61.57
2022-08-25T22:01:54.372Z,61.58
2022-08-25T22:04:56.061Z,61.86
2022-08-25T22:07:59.062Z,61.86
2022-08-25T22:11:01.250Z,62.01
2022-08-25T22:14:05.689Z,62.07
2022-08-25T22:17:16.501Z,62.05
2022-08-25T22:20:19.804Z,62.40
2022-08-25T22:23:28.144Z,62.14
2022-08-25T22:26:31.630Z,62.26
2022-08-25T22:29:33.489Z,62.73
2022-08-25T22:32:35.165Z,62.67
2022-08-25T22:35:37.057Z,62.60
2022-08-25T22:38:42.684Z,62.89
2022-08-25T22:41:45.795Z,62.76
2022-08-25T22:44:47.767Z,62.78
2022-08-25T22:47:49.792Z,62.84
2022-08-25T22:50:51.577Z,62.91
2022-08-25T22:53:55.543Z,63.08
2022-08-25T22:56:57.350Z,63.42
2022-08-25T22:59:59.390Z,63.44
2022-08-25T23:03:03.375Z,63.58
2022-08-25T23:06:11.244Z,64.02
2022-08-25T23:09:14.521Z,64.09
2022-08-25T23:12:16.874Z,63.98
2022-08-25T23:15:18.635Z,64.06
2022-08-25T23:18:22.303Z,64.21
2022-08-25T23:21:42.715Z,64.33
2022-08-25T23:24:47.442Z,64.56
2022-08-25T23:27:49.025Z,64.54
2022-08-25T23:30:57.231Z,64.79
2022-08-25T23:34:01.279Z,65.18
2022-08-25T23:37:05.823Z,65.09
2022-08-25T23:40:10.714Z,65.41
2022-08-25T23:43:12.542Z,65.58
2022-08-25T23:46:14.818Z,65.67
2022-08-25T23:49:18.672Z,65.71
2022-08-25T23:52:20.599Z,65.75
2022-08-25T23:55:23.910Z,65.97
2022-08-25T23:58:27.322Z,65.96
